Time;durP1;ratioP1;P1;durP2;ratioP2;P2;SDS_P1;SDS_P2;PMS_P1;PMS_P2;Temp;Humidity;BMP_temperature;BMP_pressure;BME280_temperature;BME280_humidity;BME280_pressure;Samples;Min_cycle;Max_cycle;Signal;HPM_P1;HPM_P2
2023/09/13 00:00:15;;;;;;;5.90;4.65;;;;;;;21.52;49.60;100811.88;4905406;29;20490;-72
2023/09/13 00:02:43;;;;;;;7.25;5.28;;;;;;;21.49;49.33;100805.88;4898511;29;20166;-72
2023/09/13 00:05:11;;;;;;;6.68;5.07;;;;;;;21.49;49.10;100814.22;4893282;29;20051;-72
2023/09/13 00:07:39;;;;;;;6.75;5.00;;;;;;;21.48;48.98;100805.00;4900571;29;20048;-72
2023/09/13 00:10:08;;;;;;;6.78;5.22;;;;;;;21.50;48.93;100813.16;4894946;29;20068;-72
2023/09/13 00:12:36;;;;;;;6.93;5.10;;;;;;;21.48;48.80;100812.50;4902893;29;20072;-73
2023/09/13 00:15:04;;;;;;;6.63;4.90;;;;;;;21.47;49.06;100819.13;4900380;29;20401;-72
2023/09/13 00:20:16;;;;;;;6.60;4.60;;;;;;;21.46;48.91;100812.72;4891110;29;20096;-72
2023/09/13 00:22:45;;;;;;;5.80;4.43;;;;;;;21.44;49.05;100811.19;4880348;29;20528;-72
2023/09/13 00:25:13;;;;;;;6.45;4.32;;;;;;;21.44;49.49;100817.63;4874335;29;20121;-72
2023/09/13 00:27:41;;;;;;;5.72;4.47;;;;;;;21.43;49.38;100813.16;4874315;29;20179;-72
2023/09/13 00:30:10;;;;;;;6.38;4.95;;;;;;;21.44;49.65;100823.19;4874471;29;20145;-72
2023/09/13 00:32:38;;;;;;;8.85;5.60;;;;;;;21.42;49.42;100819.78;4873075;29;20508;-72
2023/09/13 00:35:07;;;;;;;8.57;5.88;;;;;;;21.43;49.62;100823.41;4873639;29;20076;-72
2023/09/13 00:37:36;;;;;;;6.75;5.18;;;;;;;21.44;49.52;100831.53;4872931;29;20049;-72
2023/09/13 00:40:05;;;;;;;6.97;5.68;;;;;;;21.43;49.65;100831.78;4878876;29;20041;-72
2023/09/13 00:42:35;;;;;;;8.50;5.80;;;;;;;21.42;49.63;100839.25;4891683;29;20055;-72
2023/09/13 00:45:04;;;;;;;8.68;6.22;;;;;;;21.41;49.46;100837.53;4892914;29;20052;-72
2023/09/13 00:47:32;;;;;;;7.78;5.50;;;;;;;21.41;49.60;100837.53;4882984;29;20081;-73
2023/09/13 00:50:00;;;;;;;6.90;4.93;;;;;;;21.41;49.55;100842.25;4872512;29;20075;-72
2023/09/13 00:52:28;;;;;;;8.73;6.28;;;;;;;21.40;49.52;100851.66;4872631;29;20060;-72
2023/09/13 00:54:57;;;;;;;8.48;5.93;;;;;;;21.42;49.55;100849.53;4877180;29;20052;-72
2023/09/13 00:57:26;;;;;;;7.07;5.70;;;;;;;21.40;49.42;100851.66;4892393;29;20080;-72
2023/09/13 00:59:54;;;;;;;7.53;5.90;;;;;;;21.40;49.62;100846.09;4893075;29;20464;-72
2023/09/13 01:02:22;;;;;;;7.75;5.72;;;;;;;21.40;49.49;100843.31;4891689;29;20095;-72
2023/09/13 01:04:50;;;;;;;8.25;5.60;;;;;;;21.40;49.45;100846.09;4893360;29;20512;-72
2023/09/13 01:07:18;;;;;;;6.85;4.85;;;;;;;21.39;49.26;100847.16;4896113;29;20548;-72
2023/09/13 01:09:47;;;;;;;7.20;5.05;;;;;;;21.38;49.23;100842.66;4895472;29;20496;-72
2023/09/13 01:12:16;;;;;;;6.80;4.47;;;;;;;21.39;49.37;100849.94;4881449;29;20076;-72
2023/09/13 01:14:45;;;;;;;6.95;4.57;;;;;;;21.37;49.15;100852.94;4878027;29;20131;-72
2023/09/13 01:17:17;;;;;;;6.55;4.72;;;;;;;21.36;49.14;100837.28;4877001;29;20091;-72
2023/09/13 01:19:53;;;;;;;7.10;4.70;;;;;;;21.36;49.54;100847.56;4877190;29;20141;-72
2023/09/13 01:23:00;;;;;;;6.63;4.03;;;;;;;21.32;49.24;100840.69;4891094;29;20127;-72
2023/09/13 01:25:50;;;;;;;5.60;4.00;;;;;;;21.30;49.53;100854.81;4904180;29;20056;-72
2023/09/13 01:28:34;;;;;;;7.25;4.22;;;;;;;21.29;49.54;100855.88;4887336;29;20373;-72
2023/09/13 01:31:05;;;;;;;6.10;4.35;;;;;;;21.27;49.05;100858.03;4894304;29;20188;-72
2023/09/13 01:33:33;;;;;;;6.65;4.47;;;;;;;21.27;49.14;100851.59;4894569;29;20053;-72
2023/09/13 01:36:02;;;;;;;6.53;4.50;;;;;;;21.26;49.38;100855.44;4890656;29;20044;-72
2023/09/13 01:38:31;;;;;;;7.15;4.78;;;;;;;21.25;49.22;100851.75;4878264;29;20176;-72
2023/09/13 01:41:05;;;;;;;8.32;5.40;;;;;;;21.28;49.84;100864.44;4893866;29;20049;-72
2023/09/13 01:43:35;;;;;;;8.13;5.53;;;;;;;21.26;49.44;100861.00;4894765;29;20052;-72
2023/09/13 01:46:05;;;;;;;7.32;5.35;;;;;;;21.24;49.64;100863.09;4892301;29;20044;-72
2023/09/13 01:48:34;;;;;;;7.93;5.25;;;;;;;21.22;49.37;100866.06;4906271;29;20111;-72
2023/09/13 01:51:03;;;;;;;9.43;6.72;;;;;;;21.22;49.33;100863.28;4907705;29;20048;-72
2023/09/13 01:53:32;;;;;;;9.15;6.80;;;;;;;21.22;49.36;100865.22;4893716;29;20049;-73
2023/09/13 01:56:00;;;;;;;10.00;6.43;;;;;;;21.21;49.66;100863.50;4874880;29;20053;-72
2023/09/13 01:58:28;;;;;;;11.13;6.60;;;;;;;21.19;49.53;100860.91;4890817;29;20104;-73
2023/09/13 02:00:57;;;;;;;11.23;7.15;;;;;;;21.22;49.38;100859.66;4888435;29;20132;-72
2023/09/13 02:03:25;;;;;;;13.00;7.53;;;;;;;21.19;49.17;100862.88;4875302;29;20189;-72
2023/09/13 02:05:53;;;;;;;11.15;7.32;;;;;;;21.19;49.41;100865.66;4888818;29;20436;-72
2023/09/13 02:08:21;;;;;;;10.90;7.28;;;;;;;21.17;49.51;100868.63;4894881;29;20072;-72
2023/09/13 02:10:48;;;;;;;9.63;7.18;;;;;;;21.17;49.57;100870.56;4894847;29;20466;-72
2023/09/13 02:13:16;;;;;;;11.40;8.02;;;;;;;21.14;49.04;100872.66;4894996;29;20052;-72
2023/09/13 02:15:44;;;;;;;14.57;8.27;;;;;;;21.14;49.38;100874.59;4894714;29;20060;-72
2023/09/13 02:18:15;;;;;;;13.52;8.43;;;;;;;21.15;49.41;100867.97;4892333;29;20052;-73
2023/09/13 02:20:45;;;;;;;12.60;7.93;;;;;;;21.15;49.29;100879.09;4887303;29;20064;-72
2023/09/13 02:23:14;;;;;;;12.18;8.38;;;;;;;21.12;49.54;100872.00;4893275;29;20047;-73
2023/09/13 02:25:44;;;;;;;12.52;8.95;;;;;;;21.12;49.53;100883.13;4894729;29;20052;-72
2023/09/13 02:28:13;;;;;;;12.77;9.10;;;;;;;21.12;49.39;100882.28;4886341;29;20045;-73
2023/09/13 02:30:41;;;;;;;14.30;10.05;;;;;;;21.11;49.75;100886.97;4892604;29;20458;-72
2023/09/13 02:33:10;;;;;;;13.95;9.65;;;;;;;21.10;49.52;100885.28;4893420;29;20048;-72
2023/09/13 02:35:39;;;;;;;14.15;9.05;;;;;;;21.12;49.63;100888.69;4892863;29;20206;-72
2023/09/13 02:38:07;;;;;;;14.38;9.90;;;;;;;21.09;50.02;100889.13;4892893;29;20048;-72
2023/09/13 02:40:37;;;;;;;15.63;9.88;;;;;;;21.12;49.77;100893.41;4894145;29;20040;-72
2023/09/13 02:43:05;;;;;;;12.73;8.82;;;;;;;21.08;49.85;100895.75;4879430;29;20041;-72
2023/09/13 02:45:33;;;;;;;14.02;9.45;;;;;;;21.08;49.75;100889.31;4875514;29;20053;-72
2023/09/13 02:48:01;;;;;;;13.50;9.73;;;;;;;21.07;49.86;100884.81;4880115;29;20049;-73
2023/09/13 02:50:30;;;;;;;12.60;8.63;;;;;;;21.06;49.64;100885.88;4892405;29;20068;-72
2023/09/13 02:52:59;;;;;;;15.18;9.55;;;;;;;21.09;49.65;100893.84;4893704;29;20104;-72
2023/09/13 02:55:27;;;;;;;13.13;8.73;;;;;;;21.04;49.74;100888.84;4884816;29;20041;-72
2023/09/13 02:57:55;;;;;;;13.88;8.90;;;;;;;21.04;49.60;100885.22;4880043;29;20049;-73
2023/09/13 03:00:22;;;;;;;12.85;9.05;;;;;;;21.04;49.70;100882.44;4874291;29;20057;-73
2023/09/13 03:02:50;;;;;;;14.15;9.50;;;;;;;21.03;49.84;100892.69;4881463;29;20124;-73
2023/09/13 03:05:19;;;;;;;12.73;9.05;;;;;;;21.04;49.90;100896.34;4885683;29;20056;-72
2023/09/13 03:07:47;;;;;;;13.98;9.20;;;;;;;21.03;49.70;100900.19;4892176;29;20095;-72
2023/09/13 03:10:16;;;;;;;15.57;9.85;;;;;;;21.04;49.82;100893.56;4891235;29;20097;-72
2023/09/13 03:12:44;;;;;;;13.98;9.60;;;;;;;21.02;49.88;100899.34;4873351;29;20048;-73
2023/09/13 03:15:13;;;;;;;15.35;9.77;;;;;;;21.02;49.92;100896.56;4873377;29;20199;-72
2023/09/13 03:17:41;;;;;;;15.40;10.23;;;;;;;21.01;49.75;100897.63;4874381;29;20056;-72
2023/09/13 03:20:10;;;;;;;15.73;10.48;;;;;;;21.01;49.77;100902.34;4875039;29;20053;-72
2023/09/13 03:22:38;;;;;;;16.40;10.23;;;;;;;21.00;50.18;100900.59;4876294;29;20458;-72
2023/09/13 03:25:06;;;;;;;15.45;10.65;;;;;;;21.01;50.14;100903.19;4886032;29;20103;-72
2023/09/13 03:27:37;;;;;;;17.08;11.35;;;;;;;21.02;49.91;100898.50;4882923;29;20432;-73
2023/09/13 03:30:06;;;;;;;16.95;10.68;;;;;;;21.01;49.79;100903.19;4893748;29;20047;-73
2023/09/13 03:32:34;;;;;;;18.25;11.82;;;;;;;21.00;49.94;100903.38;4892561;29;20062;-73
2023/09/13 03:35:04;;;;;;;17.00;11.52;;;;;;;20.99;50.18;100908.09;4893878;29;20100;-73
2023/09/13 03:37:35;;;;;;;16.17;11.18;;;;;;;20.99;49.72;100908.09;4892309;29;20136;-73
2023/09/13 03:40:05;;;;;;;18.80;11.57;;;;;;;20.98;49.81;100906.38;4892077;29;20044;-73
2023/09/13 03:42:34;;;;;;;18.50;12.00;;;;;;;20.97;50.04;100907.41;4892190;29;20048;-73
2023/09/13 03:45:04;;;;;;;17.98;11.73;;;;;;;20.99;49.68;100922.00;4893848;29;20048;-73
2023/09/13 03:47:33;;;;;;;17.77;11.48;;;;;;;20.96;50.10;100915.97;4892012;29;20049;-73
2023/09/13 03:50:02;;;;;;;16.67;11.52;;;;;;;20.93;49.76;100914.47;4891909;29;20139;-73
2023/09/13 03:52:30;;;;;;;17.50;11.68;;;;;;;20.92;49.66;100912.75;4899828;29;20135;-73
2023/09/13 03:54:58;;;;;;;18.92;13.25;;;;;;;20.92;49.87;100915.53;4892035;29;20074;-73
2023/09/13 03:57:26;;;;;;;18.10;12.57;;;;;;;20.92;49.83;100909.09;4892257;29;20568;-73
2023/09/13 03:59:54;;;;;;;19.52;12.68;;;;;;;20.91;49.75;100912.94;4893801;29;20048;-73
2023/09/13 04:02:24;;;;;;;18.75;12.70;;;;;;;20.93;50.04;100916.38;4884089;29;20056;-73
2023/09/13 04:04:52;;;;;;;18.77;12.20;;;;;;;20.90;49.85;100905.66;4885634;29;20370;-73
2023/09/13 04:07:20;;;;;;;20.58;13.18;;;;;;;20.90;49.67;100909.28;4892177;29;20052;-73
2023/09/13 04:09:48;;;;;;;19.45;13.07;;;;;;;20.90;49.84;100908.44;4901075;29;20051;-73
2023/09/13 04:12:16;;;;;;;18.48;12.73;;;;;;;20.90;49.89;100909.28;4908699;29;20634;-73
2023/09/13 04:14:44;;;;;;;21.10;13.05;;;;;;;20.89;50.18;100913.13;4910944;29;20594;-73
2023/09/13 04:17:12;;;;;;;20.23;12.52;;;;;;;20.90;49.72;100911.22;4910874;29;20151;-73
2023/09/13 04:19:41;;;;;;;22.02;14.68;;;;;;;20.91;49.74;100913.81;4900730;29;20036;-73
2023/09/13 04:22:10;;;;;;;20.40;13.55;;;;;;;20.88;50.15;100916.97;4898428;29;20115;-73
2023/09/13 04:24:38;;;;;;;21.02;13.88;;;;;;;20.89;49.96;100909.50;4910243;29;20572;-73
2023/09/13 04:27:05;;;;;;;21.75;14.52;;;;;;;20.89;50.10;100915.91;4899050;29;20037;-73
2023/09/13 04:29:33;;;;;;;23.30;14.30;;;;;;;20.88;49.94;100914.19;4891844;29;20045;-74
2023/09/13 04:32:01;;;;;;;21.73;14.20;;;;;;;20.89;50.12;100920.63;4909854;29;20575;-72
2023/09/13 04:34:33;;;;;;;22.70;14.77;;;;;;;20.88;50.32;100914.19;4910556;29;20051;-72
2023/09/13 04:37:02;;;;;;;20.60;13.80;;;;;;;20.90;50.45;100922.34;4911303;29;20044;-73
2023/09/13 04:39:31;;;;;;;22.65;14.20;;;;;;;20.88;50.17;100907.75;4908145;29;20044;-75
2023/09/13 04:41:59;;;;;;;21.88;15.38;;;;;;;20.88;50.13;100922.53;4902253;29;20044;-74
2023/09/13 04:44:27;;;;;;;22.40;15.15;;;;;;;20.88;50.16;100922.53;4914681;29;20052;-74
2023/09/13 04:46:57;;;;;;;23.83;15.75;;;;;;;20.88;50.24;100922.53;4917332;29;20100;-74
2023/09/13 04:49:25;;;;;;;23.15;15.23;;;;;;;20.88;49.74;100922.53;4900913;29;20044;-74
2023/09/13 04:51:54;;;;;;;24.02;15.85;;;;;;;20.88;50.03;100921.66;4906758;29;20040;-74
2023/09/13 04:54:23;;;;;;;21.92;15.45;;;;;;;20.89;50.02;100932.59;4907848;29;20119;-74
2023/09/13 04:56:51;;;;;;;25.75;16.05;;;;;;;20.87;50.23;100925.50;4907493;29;20044;-74
2023/09/13 04:59:19;;;;;;;21.77;15.32;;;;;;;20.88;49.88;100933.66;4906929;29;20147;-74
2023/09/13 05:01:47;;;;;;;21.65;15.23;;;;;;;20.87;50.04;100939.41;4900118;29;20050;-74
2023/09/13 05:04:15;;;;;;;22.88;15.10;;;;;;;20.87;50.11;100940.28;4912810;29;20063;-73
2023/09/13 05:06:43;;;;;;;24.70;15.98;;;;;;;20.87;50.08;100942.22;4913162;29;20079;-73
2023/09/13 05:09:11;;;;;;;25.30;16.15;;;;;;;20.86;50.10;100937.72;4913693;29;20229;-74
2023/09/13 05:11:40;;;;;;;25.30;15.93;;;;;;;20.87;49.96;100942.22;4905984;29;20056;-73
2023/09/13 05:14:11;;;;;;;23.90;15.88;;;;;;;20.86;49.97;100943.28;4897495;29;20069;-73
2023/09/13 05:16:39;;;;;;;25.65;15.93;;;;;;;20.83;49.93;100940.91;4911361;29;20044;-73
2023/09/13 05:19:07;;;;;;;23.90;15.80;;;;;;;20.83;49.68;100941.75;4914028;29;20040;-73
2023/09/13 05:21:35;;;;;;;26.00;16.95;;;;;;;20.82;49.89;100951.16;4911042;29;20606;-73
2023/09/13 05:24:03;;;;;;;24.98;16.95;;;;;;;20.81;49.77;100952.22;4914813;29;20044;-73
2023/09/13 05:26:31;;;;;;;24.75;16.77;;;;;;;20.81;49.78;100959.69;4913161;29;20052;-72
2023/09/13 05:29:01;;;;;;;21.90;14.73;;;;;;;20.82;49.55;100959.50;4913743;29;20051;-73
2023/09/13 05:31:30;;;;;;;24.80;16.55;;;;;;;20.78;50.03;100959.03;4912759;29;20477;-73
2023/09/13 05:33:58;;;;;;;24.25;16.17;;;;;;;20.77;49.80;100965.69;4914692;29;20123;-73
2023/09/13 05:36:26;;;;;;;22.52;15.68;;;;;;;20.75;49.53;100973.34;4913923;29;20036;-72
2023/09/13 05:38:54;;;;;;;23.17;15.45;;;;;;;20.75;49.90;100975.28;4909194;29;20135;-75
2023/09/13 05:41:22;;;;;;;22.27;15.88;;;;;;;20.73;49.82;100977.38;4908735;29;20475;-73
2023/09/13 05:43:50;;;;;;;25.02;17.50;;;;;;;20.73;49.93;100980.16;4914420;29;20535;-74
2023/09/13 05:46:19;;;;;;;23.98;15.57;;;;;;;20.74;49.94;100982.75;4904131;29;20462;-73
2023/09/13 05:48:47;;;;;;;24.77;15.40;;;;;;;20.71;49.90;100982.28;4910884;29;20054;-74
2023/09/13 05:51:16;;;;;;;25.70;17.63;;;;;;;20.71;49.98;100990.63;4908631;29;20044;-74
2023/09/13 05:53:44;;;;;;;26.83;17.17;;;;;;;20.71;49.92;100990.63;4904262;29;20130;-73
2023/09/13 05:56:12;;;;;;;24.67;16.55;;;;;;;20.70;49.74;100995.31;4894046;29;20051;-73
2023/09/13 05:58:43;;;;;;;24.52;16.83;;;;;;;20.70;49.87;101000.88;4904453;29;20673;-73
2023/09/13 06:01:11;;;;;;;25.35;16.23;;;;;;;20.69;49.72;101001.97;4910121;29;20044;-73
2023/09/13 06:03:41;;;;;;;23.95;15.23;;;;;;;20.69;49.66;100999.19;4910148;29;20529;-74
2023/09/13 06:06:09;;;;;;;23.75;16.17;;;;;;;20.67;49.55;101000.44;4906616;29;20571;-74
2023/09/13 06:08:37;;;;;;;25.17;16.15;;;;;;;20.66;49.28;101010.69;4901032;29;20056;-74
2023/09/13 06:11:05;;;;;;;22.48;14.60;;;;;;;20.64;49.49;101015.59;4906566;29;20171;-66
2023/09/13 06:13:40;;;;;;;20.48;13.23;;;;;;;20.64;49.67;101009.16;4902093;29;20516;-62
2023/09/13 06:16:15;;;;;;;20.80;14.32;;;;;;;20.61;50.09;101020.69;4904440;29;20062;-62
2023/09/13 06:18:45;;;;;;;20.35;14.27;;;;;;;20.66;50.04;101020.97;4909351;29;20095;-61
2023/09/13 06:21:14;;;;;;;20.73;14.25;;;;;;;20.65;50.02;101020.09;4906354;29;20473;-62
2023/09/13 06:23:42;;;;;;;20.33;13.38;;;;;;;20.67;49.94;101026.31;4912386;29;20044;-62
2023/09/13 06:26:10;;;;;;;22.25;14.00;;;;;;;20.67;49.96;101023.53;4907758;29;20036;-62
2023/09/13 06:28:39;;;;;;;21.95;15.18;;;;;;;20.68;50.06;101025.28;4912766;29;20323;-61
2023/09/13 06:31:08;;;;;;;16.50;12.05;;;;;;;20.70;50.04;101023.13;4909120;29;20147;-61
2023/09/13 06:33:55;;;;;;;17.60;12.48;;;;;;;20.71;50.06;101029.56;4915243;29;20044;-61
2023/09/13 06:36:23;;;;;;;17.65;12.85;;;;;;;20.72;50.03;101034.94;4904598;29;20116;-61
2023/09/13 06:38:52;;;;;;;18.58;12.88;;;;;;;20.72;49.68;101026.59;4899990;29;20044;-61
2023/09/13 06:41:20;;;;;;;16.35;11.32;;;;;;;20.74;50.11;101032.81;4906557;29;20127;-59
2023/09/13 06:43:48;;;;;;;17.90;12.82;;;;;;;20.74;49.92;101032.81;4905812;29;20181;-62
2023/09/13 06:46:35;;;;;;;18.10;12.35;;;;;;;20.75;49.89;101040.13;4907106;29;20520;-61
2023/09/13 06:49:05;;;;;;;19.40;12.68;;;;;;;20.78;49.33;101047.19;4909893;29;20507;-60
2023/09/13 06:51:35;;;;;;;18.13;12.75;;;;;;;20.76;49.98;101043.75;4904234;29;20063;-60
2023/09/13 06:54:06;;;;;;;17.25;12.50;;;;;;;20.77;49.58;101051.03;4897930;29;20098;-61
2023/09/13 06:56:37;;;;;;;19.30;12.43;;;;;;;20.77;49.70;101060.25;4905375;29;20135;-60
2023/09/13 06:59:09;;;;;;;17.23;12.00;;;;;;;20.73;49.66;101061.69;4907901;29;20143;-60
2023/09/13 07:01:41;;;;;;;17.02;11.93;;;;;;;20.73;49.55;101064.47;4905756;29;20396;-60
2023/09/13 07:04:14;;;;;;;17.65;12.45;;;;;;;20.75;49.51;101062.38;4907776;29;20469;-61
2023/09/13 07:06:49;;;;;;;19.02;12.77;;;;;;;20.74;49.51;101057.00;4908509;29;20576;-60
2023/09/13 07:09:17;;;;;;;17.10;11.93;;;;;;;20.74;49.22;101068.97;4907363;29;20036;-59
2023/09/13 07:11:45;;;;;;;16.00;11.70;;;;;;;20.73;49.63;101067.25;4908896;29;20055;-61
2023/09/13 07:14:13;;;;;;;17.17;11.95;;;;;;;20.74;49.49;101076.47;4911540;29;20587;-60
2023/09/13 07:16:41;;;;;;;15.18;10.85;;;;;;;20.74;49.33;101079.25;4906814;29;20413;-58
2023/09/13 07:19:09;;;;;;;17.30;12.45;;;;;;;20.73;49.40;101075.59;4908888;29;20520;-59
2023/09/13 07:21:38;;;;;;;15.65;11.20;;;;;;;20.76;49.44;101086.34;4903611;29;20055;-60
2023/09/13 07:24:07;;;;;;;14.30;10.10;;;;;;;20.75;49.27;101083.75;4909311;29;20134;-58
2023/09/13 07:26:34;;;;;;;16.42;11.25;;;;;;;20.75;49.44;101083.75;4894193;29;20369;-59
2023/09/13 07:29:03;;;;;;;17.73;11.15;;;;;;;20.76;49.49;101089.13;4901409;29;20095;-66
2023/09/13 07:31:31;;;;;;;14.55;10.23;;;;;;;20.76;49.32;101085.47;4916519;29;20044;-66
2023/09/13 07:34:02;;;;;;;14.43;9.70;;;;;;;20.78;49.78;101086.13;4900923;29;20127;-66
2023/09/13 07:36:31;;;;;;;14.88;11.02;;;;;;;20.76;49.57;101086.34;4903095;29;20107;-66
2023/09/13 07:39:03;;;;;;;14.27;9.98;;;;;;;20.83;49.44;101091.13;4907332;29;20044;-64
2023/09/13 07:41:31;;;;;;;;;;;;;;;20.53;49.76;101090.28;4906345;29;20151;-65
2023/09/13 07:43:58;;;;;;;13.73;9.25;;;;;;;20.79;49.73;101096.19;4902622;29;19923;-66
2023/09/13 07:46:26;;;;;;;14.10;10.38;;;;;;;20.86;49.36;101091.56;4902869;29;20044;-65
2023/09/13 07:48:55;;;;;;;13.15;10.38;;;;;;;20.91;49.57;101099.34;4906405;29;20040;-66
2023/09/13 07:51:22;;;;;;;14.80;10.73;;;;;;;20.94;49.74;101097.03;4904764;29;20520;-66
2023/09/13 07:53:53;;;;;;;15.90;10.50;;;;;;;20.99;49.83;101100.09;4908248;29;20066;-65
2023/09/13 07:56:23;;;;;;;13.90;10.05;;;;;;;21.07;49.48;101101.88;4902331;29;20537;-66
2023/09/13 07:58:51;;;;;;;14.80;9.93;;;;;;;21.12;49.57;101110.47;4909570;29;20044;-66
2023/09/13 08:01:19;;;;;;;12.80;9.55;;;;;;;21.17;49.32;101115.47;4907847;29;20058;-66
2023/09/13 08:03:47;;;;;;;14.30;9.10;;;;;;;21.21;48.88;101112.06;4902601;29;20047;-66
2023/09/13 08:06:15;;;;;;;12.55;9.40;;;;;;;21.26;48.96;101111.53;4899848;29;20072;-66
2023/09/13 08:08:43;;;;;;;14.77;10.10;;;;;;;21.29;48.80;101117.56;4903063;29;20147;-66
2023/09/13 08:11:11;;;;;;;12.85;9.43;;;;;;;21.31;48.39;101121.00;4902959;29;20058;-66
2023/09/13 08:13:40;;;;;;;12.05;8.82;;;;;;;21.35;48.19;101130.69;4905008;29;20135;-65
2023/09/13 08:16:08;;;;;;;13.73;9.23;;;;;;;21.35;48.23;101136.25;4909007;29;20044;-66
2023/09/13 08:18:36;;;;;;;12.45;9.32;;;;;;;21.37;48.00;101127.69;4905195;29;20104;-66
2023/09/13 08:21:04;;;;;;;12.65;8.95;;;;;;;21.38;48.27;101129.41;4905417;29;20044;-66
2023/09/13 08:23:32;;;;;;;13.27;8.82;;;;;;;21.39;47.83;101123.66;4910993;29;20052;-65
2023/09/13 08:26:00;;;;;;;11.15;7.40;;;;;;;21.40;47.87;101141.22;4906754;29;20053;-66
2023/09/13 08:28:49;;;;;;;10.63;7.05;;;;;;;21.41;47.45;101148.53;4912063;29;20410;-65
2023/09/13 08:31:18;;;;;;;11.00;8.20;;;;;;;21.40;47.66;101138.44;4913053;29;20051;-66
2023/09/13 08:33:46;;;;;;;11.25;8.10;;;;;;;21.40;47.70;101146.78;4906809;29;20060;-66
2023/09/13 08:36:17;;;;;;;12.07;8.93;;;;;;;21.40;47.77;101155.16;4909272;29;20047;-66
2023/09/13 08:38:45;;;;;;;12.25;8.52;;;;;;;21.39;47.65;101156.19;4912535;29;20120;-66
2023/09/13 08:41:14;;;;;;;14.70;8.93;;;;;;;21.39;47.35;101159.84;4905716;29;20040;-66
2023/09/13 08:43:44;;;;;;;10.60;7.55;;;;;;;21.39;47.41;101168.22;4913742;29;20615;-65
2023/09/13 08:46:15;;;;;;;10.80;7.82;;;;;;;21.38;47.12;101177.63;4911555;29;20380;-66
2023/09/13 08:48:44;;;;;;;10.98;7.85;;;;;;;21.36;47.38;101182.50;4913894;29;20155;-66
2023/09/13 08:51:14;;;;;;;9.02;6.82;;;;;;;21.34;47.19;101184.66;4906081;29;20585;-66
2023/09/13 08:53:44;;;;;;;9.90;6.45;;;;;;;21.32;47.09;101181.19;4907744;29;20044;-66
2023/09/13 08:56:13;;;;;;;10.55;7.35;;;;;;;21.30;47.11;101183.31;4908307;29;20103;-66
2023/09/13 08:58:41;;;;;;;10.70;6.97;;;;;;;21.27;46.86;101185.63;4909343;29;20148;-66
2023/09/13 09:01:12;;;;;;;10.55;7.05;;;;;;;21.28;46.87;101190.13;4910220;29;20103;-66
2023/09/13 09:03:43;;;;;;;10.73;6.90;;;;;;;21.26;47.11;101197.84;4916032;29;20107;-65
2023/09/13 09:06:17;;;;;;;11.13;6.93;;;;;;;21.20;47.14;101196.63;4911577;29;20119;-65
2023/09/13 09:08:46;;;;;;;9.77;6.78;;;;;;;21.22;47.45;101196.44;4910485;29;20049;-65
2023/09/13 09:11:17;;;;;;;10.90;7.03;;;;;;;21.22;47.37;101193.66;4913586;29;20062;-65
2023/09/13 09:13:47;;;;;;;10.25;6.97;;;;;;;21.20;47.19;101202.22;4912318;29;20056;-65
2023/09/13 09:16:17;;;;;;;9.82;7.20;;;;;;;21.18;47.47;101204.34;4909184;29;20135;-65
2023/09/13 09:18:48;;;;;;;11.50;7.30;;;;;;;21.19;47.42;101208.00;4905458;29;20312;-65
2023/09/13 09:21:17;;;;;;;11.32;7.30;;;;;;;21.15;47.24;101207.50;4910206;29;20052;-65
2023/09/13 09:23:45;;;;;;;9.57;7.22;;;;;;;21.14;47.44;101206.66;4910929;29;20163;-65
2023/09/13 09:26:13;;;;;;;10.52;7.13;;;;;;;21.14;47.47;101216.91;4910685;29;20507;-65
2023/09/13 09:28:41;;;;;;;9.18;6.80;;;;;;;21.12;47.50;101208.75;4905020;29;20048;-65
2023/09/13 09:31:12;;;;;;;9.95;7.25;;;;;;;21.11;47.42;101214.50;4907815;29;20051;-66
2023/09/13 09:33:42;;;;;;;10.50;7.28;;;;;;;21.11;47.73;101215.38;4908334;29;20365;-65
2023/09/13 09:36:13;;;;;;;10.27;7.10;;;;;;;21.12;48.02;101219.88;4904084;29;20083;-65
2023/09/13 09:38:44;;;;;;;11.52;7.30;;;;;;;21.13;47.93;101220.75;4915729;29;20163;-65
2023/09/13 09:41:13;;;;;;;10.02;7.85;;;;;;;21.08;47.58;101210.22;4909039;29;20047;-63
2023/09/13 09:43:44;;;;;;;11.05;7.80;;;;;;;21.13;47.44;101216.06;4918319;29;20099;-63
2023/09/13 09:46:12;;;;;;;10.25;6.95;;;;;;;21.08;47.62;101207.44;4911037;29;20051;-63
2023/09/13 09:48:40;;;;;;;10.63;7.40;;;;;;;21.10;47.23;101210.03;4904939;29;20147;-63
2023/09/13 09:51:12;;;;;;;8.98;6.85;;;;;;;21.13;47.47;101215.19;4909442;29;20044;-63
2023/09/13 09:53:40;;;;;;;8.63;6.32;;;;;;;21.11;47.56;101223.72;4907801;29;20053;-64
2023/09/13 09:56:08;;;;;;;9.38;6.47;;;;;;;21.14;47.41;101211.34;4902491;29;20048;-66
2023/09/13 09:58:36;;;;;;;9.75;6.53;;;;;;;21.17;47.59;101224.88;4906258;29;20187;-65
2023/09/13 10:01:05;;;;;;;9.20;6.40;;;;;;;21.21;47.85;101215.06;4911180;29;20052;-64
2023/09/13 10:03:34;;;;;;;9.07;6.70;;;;;;;21.26;47.89;101208.97;4901700;29;20072;-64
2023/09/13 10:06:03;;;;;;;8.50;6.43;;;;;;;21.32;47.80;101211.81;4903021;29;20040;-64
2023/09/13 10:08:41;;;;;;;9.55;6.90;;;;;;;21.40;47.34;101208.91;4906573;29;20055;-65
2023/09/13 10:11:15;;;;;;;8.75;5.97;;;;;;;21.41;47.62;101215.34;4907433;29;20063;-64
2023/09/13 10:13:45;;;;;;;9.98;6.85;;;;;;;21.49;47.71;101221.66;4903576;29;20066;-64
2023/09/13 10:16:14;;;;;;;8.05;6.03;;;;;;;21.53;47.37;101217.41;4899083;29;20043;-64
2023/09/13 10:18:45;;;;;;;9.27;6.05;;;;;;;21.59;47.02;101217.69;4904989;29;20047;-64
2023/09/13 10:21:15;;;;;;;8.63;6.13;;;;;;;21.64;46.94;101227.16;4899098;29;20040;-64
2023/09/13 10:23:46;;;;;;;9.20;6.30;;;;;;;21.68;46.45;101219.28;4908673;29;20056;-63
2023/09/13 10:26:15;;;;;;;8.93;5.87;;;;;;;21.67;47.05;101224.00;4903601;29;20131;-64
2023/09/13 10:28:46;;;;;;;9.85;6.13;;;;;;;21.73;46.68;101205.59;4905342;29;20048;-64
2023/09/13 10:31:18;;;;;;;9.43;5.82;;;;;;;21.76;46.53;101205.22;4905781;29;20048;-63
2023/09/13 10:33:51;;;;;;;8.38;6.35;;;;;;;21.77;46.66;101210.56;4906937;29;20048;-64
2023/09/13 10:36:32;;;;;;;8.63;4.90;;;;;;;21.82;46.53;101202.50;4899303;29;20048;-64
2023/09/13 10:39:15;;;;;;;7.35;5.93;;;;;;;21.87;46.58;101213.03;4904482;29;20044;-64
2023/09/13 10:41:47;;;;;;;9.55;5.78;;;;;;;21.89;46.81;101214.56;4909141;29;20512;-64
2023/09/13 10:44:16;;;;;;;7.85;5.53;;;;;;;21.96;46.78;101214.66;4906520;29;20036;-64
2023/09/13 10:46:45;;;;;;;7.45;5.10;;;;;;;22.01;46.67;101214.06;4904788;29;20127;-64
2023/09/13 10:49:13;;;;;;;8.02;5.53;;;;;;;22.05;46.11;101227.38;4906005;29;20100;-64
2023/09/13 10:51:42;;;;;;;6.38;4.80;;;;;;;22.10;46.03;101226.75;4903666;29;20048;-64
2023/09/13 10:54:15;;;;;;;8.40;5.38;;;;;;;22.14;45.76;101234.53;4906467;29;20044;-64
2023/09/13 10:56:44;;;;;;;6.85;5.28;;;;;;;22.14;46.12;101240.09;4902039;29;20139;-64
2023/09/13 10:59:17;;;;;;;6.13;4.30;;;;;;;22.17;45.90;101238.84;4901474;29;20466;-64
2023/09/13 11:01:46;;;;;;;7.47;4.38;;;;;;;22.16;46.52;101246.34;4899578;29;20127;-65
2023/09/13 11:04:15;;;;;;;4.57;3.28;;;;;;;22.18;46.63;101248.91;4906141;29;20524;-64
2023/09/13 11:06:44;;;;;;;5.50;3.30;;;;;;;22.17;46.58;101250.00;4899065;29;20049;-65
2023/09/13 11:09:14;;;;;;;5.22;3.25;;;;;;;22.16;46.24;101257.50;4907079;29;20086;-65
2023/09/13 11:11:51;;;;;;;3.97;2.55;;;;;;;22.14;46.92;101264.34;4906917;29;20473;-66
2023/09/13 11:14:24;;;;;;;4.18;2.60;;;;;;;22.09;47.24;101270.53;4909420;29;20118;-68
2023/09/13 11:16:52;;;;;;;4.50;2.75;;;;;;;22.02;46.96;101282.66;4898601;29;20381;-69
2023/09/13 11:19:26;;;;;;;3.95;2.30;;;;;;;21.99;47.30;101299.78;4907248;29;20100;-69
2023/09/13 11:22:00;;;;;;;3.75;2.60;;;;;;;21.91;46.97;101294.34;4903347;29;20056;-68
2023/09/13 11:24:40;;;;;;;4.75;3.65;;;;;;;21.85;46.34;101305.16;4898016;29;20694;-68
2023/09/13 11:27:28;;;;;;;5.85;4.20;;;;;;;21.76;46.68;101316.66;4901317;29;20053;-69
2023/09/13 11:29:59;;;;;;;6.05;4.53;;;;;;;21.73;46.19;101312.34;4909331;29;20139;-68